Time;durP1;ratioP1;P1;durP2;ratioP2;P2;SDS_P1;SDS_P2;PMS_P1;PMS_P2;Temp;Humidity;BMP_temperature;BMP_pressure;BME280_temperature;BME280_humidity;BME280_pressure;Samples;Min_cycle;Max_cycle;Signal;HPM_P1;HPM_P2
2022/12/16 00:01:17;;;;;;;;;;;23.80;73.60;;;;;;5087532;28;19916;-77
2022/12/16 00:03:49;;;;;;;;;;;23.80;72.90;;;;;;5079221;28;19916;-71
2022/12/16 00:06:16;;;;;;;;;;;23.70;75.10;;;;;;5085987;28;19916;-75
2022/12/16 00:08:43;;;;;;;;;;;23.80;72.60;;;;;;5077320;28;19971;-72
2022/12/16 00:11:10;;;;;;;;;;;23.80;73.90;;;;;;5082950;28;20003;-79
2022/12/16 00:13:39;;;;;;;;;;;23.70;72.70;;;;;;5079821;28;20010;-76
2022/12/16 00:16:07;;;;;;;;;;;23.80;73.50;;;;;;5086779;28;20014;-76
2022/12/16 00:18:33;;;;;;;;;;;23.90;73.40;;;;;;5085487;28;20274;-78
2022/12/16 00:21:01;;;;;;;;;;;24.00;73.40;;;;;;5082994;28;19923;-78
2022/12/16 00:23:28;;;;;;;;;;;24.20;74.10;;;;;;5077470;28;19913;-78
2022/12/16 00:25:54;;;;;;;;;;;24.50;73.60;;;;;;5083075;28;19920;-75
2022/12/16 00:28:22;;;;;;;;;;;24.60;73.50;;;;;;5085278;28;20377;-77
2022/12/16 00:30:52;;;;;;;;;;;24.60;72.80;;;;;;5080572;28;19919;-76
2022/12/16 00:33:20;;;;;;;;;;;24.60;72.00;;;;;;5080220;28;20038;-77
2022/12/16 00:35:48;;;;;;;;;;;24.80;71.30;;;;;;5080638;28;21290;-77
2022/12/16 00:38:15;;;;;;;;;;;25.20;72.00;;;;;;5077308;28;19924;-78
2022/12/16 00:40:43;;;;;;;;;;;25.10;72.20;;;;;;5073300;28;19919;-77
2022/12/16 00:43:09;;;;;;;;;;;25.00;72.90;;;;;;5089764;28;19919;-77
2022/12/16 00:45:36;;;;;;;;;;;25.00;72.10;;;;;;5087602;28;19992;-76
2022/12/16 00:48:03;;;;;;;;;;;25.00;72.00;;;;;;5083054;28;21314;-75
2022/12/16 00:50:31;;;;;;;;;;;24.90;72.00;;;;;;5077671;28;19998;-77
2022/12/16 00:52:58;;;;;;;;;;;25.10;71.60;;;;;;5079309;28;19916;-77
2022/12/16 00:55:25;;;;;;;;;;;25.40;69.90;;;;;;5077498;28;19912;-77
2022/12/16 00:57:51;;;;;;;;;;;25.80;69.70;;;;;;5080639;28;19923;-77
2022/12/16 01:00:19;;;;;;;;;;;26.00;70.70;;;;;;5074123;28;19927;-75
2022/12/16 01:02:47;;;;;;;;;;;26.40;68.70;;;;;;5071963;28;19913;-77
2022/12/16 01:05:14;;;;;;;;;;;27.00;71.30;;;;;;5084676;28;20362;-77
2022/12/16 01:07:41;;;;;;;;;;;27.50;72.00;;;;;;5081197;28;19920;-78
2022/12/16 01:10:08;;;;;;;;;;;27.60;69.20;;;;;;5072074;28;19927;-77
2022/12/16 01:12:36;;;;;;;;;;;27.40;68.90;;;;;;5080150;28;19913;-81
2022/12/16 01:15:03;;;;;;;;;;;27.10;69.10;;;;;;5081640;28;19920;-75
2022/12/16 01:17:30;;;;;;;;;;;27.20;69.20;;;;;;5080357;28;19916;-77
2022/12/16 01:19:57;;;;;;;;;;;27.30;70.60;;;;;;5088435;28;19927;-77
2022/12/16 01:22:23;;;;;;;;;;;27.40;68.90;;;;;;5080422;28;19916;-76
2022/12/16 01:24:50;;;;;;;;;;;27.20;69.30;;;;;;5082701;28;19912;-76
2022/12/16 01:27:17;;;;;;;;;;;27.30;69.10;;;;;;5073843;28;20018;-79
2022/12/16 01:29:44;;;;;;;;;;;27.10;68.20;;;;;;5069113;28;19920;-76
2022/12/16 01:32:14;;;;;;;;;;;27.10;68.60;;;;;;5087305;28;19912;-77
2022/12/16 01:34:41;;;;;;;;;;;27.30;68.70;;;;;;5070550;28;19966;-76
2022/12/16 01:37:11;;;;;;;;;;;27.60;68.80;;;;;;5081473;28;19973;-76
2022/12/16 01:39:38;;;;;;;;;;;28.10;70.00;;;;;;5085413;28;19920;-72
2022/12/16 01:42:11;;;;;;;;;;;28.40;69.30;;;;;;5086621;28;20262;-77
2022/12/16 01:44:38;;;;;;;;;;;28.70;69.10;;;;;;5085130;28;19920;-76
2022/12/16 01:47:05;;;;;;;;;;;28.60;66.80;;;;;;5078928;28;19924;-76
2022/12/16 01:49:35;;;;;;;;;;;28.30;68.40;;;;;;5086263;28;20013;-72
2022/12/16 01:52:03;;;;;;;;;;;28.00;68.70;;;;;;5091621;28;19920;-74
2022/12/16 01:54:34;;;;;;;;;;;28.10;68.30;;;;;;5088878;28;20269;-72
2022/12/16 01:57:03;;;;;;;;;;;28.30;68.70;;;;;;5087483;28;19917;-73
2022/12/16 01:59:31;;;;;;;;;;;28.30;67.50;;;;;;5089539;28;20568;-72
2022/12/16 02:01:58;;;;;;;;;;;28.20;68.80;;;;;;5092874;28;19994;-72
2022/12/16 02:04:24;;;;;;;;;;;28.20;68.30;;;;;;5091283;28;19916;-73
2022/12/16 02:06:51;;;;;;;;;;;27.90;68.80;;;;;;5083533;28;19939;-73
2022/12/16 02:09:18;;;;;;;;;;;27.70;67.40;;;;;;5084306;28;19916;-72
2022/12/16 02:12:03;;;;;;;;;;;27.40;67.70;;;;;;5089346;28;19943;-74
2022/12/16 02:14:33;;;;;;;;;;;26.90;67.30;;;;;;5090881;28;19916;-75
2022/12/16 02:17:08;;;;;;;;;;;26.80;68.20;;;;;;5084841;28;19912;-73
2022/12/16 02:19:53;;;;;;;;;;;27.20;68.80;;;;;;5087550;28;19948;-73
2022/12/16 02:22:25;;;;;;;;;;;27.80;68.80;;;;;;5085392;28;19913;-74
2022/12/16 02:24:52;;;;;;;;;;;28.40;68.10;;;;;;5091446;28;19944;-74
2022/12/16 02:27:33;;;;;;;;;;;28.50;67.50;;;;;;5088740;28;19997;-74
2022/12/16 02:30:18;;;;;;;;;;;28.50;65.80;;;;;;5090025;28;19970;-75
2022/12/16 02:32:45;;;;;;;;;;;28.10;67.10;;;;;;5086889;28;20362;-75
2022/12/16 02:35:20;;;;;;;;;;;28.30;67.00;;;;;;5082701;28;20277;-75
2022/12/16 02:38:00;;;;;;;;;;;28.50;69.00;;;;;;5082145;28;19938;-72
2022/12/16 02:40:32;;;;;;;;;;;28.50;66.90;;;;;;5090044;28;19919;-73
2022/12/16 02:43:11;;;;;;;;;;;28.30;67.40;;;;;;5077564;28;19916;-73
2022/12/16 02:45:39;;;;;;;;;;;28.10;67.00;;;;;;5072718;28;20279;-73
2022/12/16 02:48:06;;;;;;;;;;;27.20;66.30;;;;;;5074753;28;19931;-74
2022/12/16 02:50:38;;;;;;;;;;;26.50;67.60;;;;;;5076632;28;19995;-76
2022/12/16 02:53:06;;;;;;;;;;;26.10;69.00;;;;;;5081033;28;19916;-71
2022/12/16 02:55:53;;;;;;;;;;;25.80;68.70;;;;;;5075922;28;19916;-73
2022/12/16 02:58:28;;;;;;;;;;;25.50;68.80;;;;;;5044198;28;20377;-76
2022/12/16 03:01:13;;;;;;;;;;;25.90;68.30;;;;;;5072330;28;19916;-73
2022/12/16 03:03:45;;;;;;;;;;;26.30;67.70;;;;;;5073100;28;20497;-72
2022/12/16 03:06:14;;;;;;;;;;;26.70;68.50;;;;;;5081112;28;19938;-73
2022/12/16 03:08:43;;;;;;;;;;;27.00;68.30;;;;;;5086111;28;19912;-76
2022/12/16 03:11:10;;;;;;;;;;;27.10;69.70;;;;;;5077847;28;19965;-74
2022/12/16 03:13:40;;;;;;;;;;;27.20;67.50;;;;;;5073773;28;19919;-74
2022/12/16 03:16:08;;;;;;;;;;;26.40;68.20;;;;;;5069514;28;19913;-76
2022/12/16 03:18:38;;;;;;;;;;;25.40;67.90;;;;;;5077711;28;19912;-71
2022/12/16 03:21:06;;;;;;;;;;;24.50;69.90;;;;;;5078441;28;19912;-72
2022/12/16 03:23:52;;;;;;;;;;;24.50;70.30;;;;;;5074394;28;19923;-73
2022/12/16 03:26:23;;;;;;;;;;;24.30;70.00;;;;;;5072126;28;19927;-76
2022/12/16 03:29:22;;;;;;;;;;;24.20;70.90;;;;;;5079547;28;19920;-77
2022/12/16 03:31:57;;;;;;;;;;;24.40;70.30;;;;;;5044737;28;20682;-77
2022/12/16 03:34:36;;;;;;;;;;;24.30;70.70;;;;;;5084565;28;19924;-75
2022/12/16 03:37:06;;;;;;;;;;;24.50;71.00;;;;;;5076107;28;19935;-76
2022/12/16 03:39:35;;;;;;;;;;;24.40;71.00;;;;;;5083863;28;19919;-76
2022/12/16 03:42:02;;;;;;;;;;;24.50;70.60;;;;;;5085796;28;19913;-76
2022/12/16 03:44:30;;;;;;;;;;;24.30;70.20;;;;;;5071580;28;20007;-72
2022/12/16 03:46:57;;;;;;;;;;;23.90;71.60;;;;;;5090750;28;19935;-76
2022/12/16 03:49:24;;;;;;;;;;;24.10;71.20;;;;;;5089949;28;20018;-77
2022/12/16 03:51:51;;;;;;;;;;;24.10;71.50;;;;;;5077157;28;19916;-76
2022/12/16 03:54:18;;;;;;;;;;;24.30;71.90;;;;;;5087017;28;19918;-75
2022/12/16 03:56:44;;;;;;;;;;;24.30;71.50;;;;;;5072968;28;19919;-77
2022/12/16 03:59:11;;;;;;;;;;;24.30;71.50;;;;;;5084915;28;19913;-74
2022/12/16 04:01:38;;;;;;;;;;;24.40;71.00;;;;;;5073945;28;20016;-75
2022/12/16 04:04:05;;;;;;;;;;;24.20;72.00;;;;;;5084215;28;19919;-77
2022/12/16 04:06:31;;;;;;;;;;;24.00;72.70;;;;;;5084002;28;20069;-75
2022/12/16 04:08:58;;;;;;;;;;;23.90;72.90;;;;;;5072973;28;20021;-76
2022/12/16 04:25:14;;;;;;;;;;;26.00;71.80;;;;;;5075509;28;19934;-75
2022/12/16 04:27:45;;;;;;;;;;;26.30;71.60;;;;;;5079975;28;20027;-75
2022/12/16 04:30:19;;;;;;;;;;;26.50;72.70;;;;;;5086389;28;20922;-75
